Terminal Aerodrome Forecast
Issued by NWS

Home | Current Version | Previous Version | Text Only | Print | Product List | Glossary On
Versions: 1 2 3 4 5 6 7 8 9 10 11 12 13
000
FTUS45 KABQ 061133
TAFTCC
TAF
KTCC 061133Z 0612/0712 25007KT P6SM FEW150
     FM061800 07010KT P6SM FEW060
     FM062100 06015G25KT P6SM VCTS BKN060CB
     FM070000 04018G28KT P6SM VCSH SCT040 BKN060
     FM070900 03011KT 5SM BR VCSH OVC025=

USA.gov is the U.S. government's official web portal to all federal, state and local government web resources and services.